createdAt,value
2023-03-27T00:00:00.042Z,10.34275
2023-03-27T00:05:01.617Z,10.25732
2023-03-27T00:10:03.057Z,10.07502
2023-03-27T00:15:04.482Z,10.31766
2023-03-27T00:20:05.973Z,9.37885
2023-03-27T00:25:07.424Z,7.82867
2023-03-27T00:30:08.862Z,6.37412
2023-03-27T00:35:10.344Z,6.50147
2023-03-27T00:40:12.015Z,6.43732
2023-03-27T00:45:13.504Z,7.00104
2023-03-27T00:50:14.991Z,6.22327
2023-03-27T00:55:16.473Z,6.16039
2023-03-27T01:00:17.941Z,6.17913
2023-03-27T01:05:19.438Z,5.23781
2023-03-27T01:10:20.888Z,4.89482
2023-03-27T01:15:22.309Z,4.48483
2023-03-27T01:20:23.898Z,4.21266
2023-03-27T01:25:25.305Z,3.89414
2023-03-27T01:30:26.875Z,3.73439
2023-03-27T01:35:28.506Z,3.7074
2023-03-27T01:40:29.961Z,4.13613
2023-03-27T01:45:31.409Z,4.62837
2023-03-27T01:50:32.972Z,4.62329
2023-03-27T01:55:34.391Z,4.45879
2023-03-27T02:00:51.726Z,4.27173
2023-03-27T02:05:54.964Z,4.0634
2023-03-27T02:10:56.678Z,3.40666
2023-03-27T02:15:58.240Z,3.54798
2023-03-27T02:20:59.847Z,2.88234
2023-03-27T02:26:01.360Z,3.45048
2023-03-27T02:31:05.634Z,3.81633
2023-03-27T02:36:33.664Z,4.21044
2023-03-27T02:41:35.040Z,4.47594
2023-03-27T02:46:37.925Z,4.47371
2023-03-27T02:51:39.433Z,3.14656
2023-03-27T02:56:40.874Z,3.55401
2023-03-27T03:01:42.395Z,3.65373
2023-03-27T03:06:43.882Z,3.37268
2023-03-27T03:11:45.362Z,4.81987
2023-03-27T03:16:46.883Z,4.05832
2023-03-27T03:21:48.324Z,4.3759
2023-03-27T03:26:49.804Z,4.46133
2023-03-27T03:31:51.199Z,4.52611
2023-03-27T03:36:52.856Z,4.21489
2023-03-27T03:41:54.296Z,4.81162
2023-03-27T03:46:55.711Z,4.52484
2023-03-27T03:52:03.527Z,4.37463
2023-03-27T03:57:05.930Z,2.99222
2023-03-27T04:02:07.808Z,3.75377
2023-03-27T04:07:09.468Z,4.09738
2023-03-27T04:12:10.913Z,4.25617
2023-03-27T04:17:12.549Z,4.58169
2023-03-27T04:22:13.953Z,4.09262
2023-03-27T04:27:15.402Z,3.98877
2023-03-27T04:32:16.844Z,4.15106
2023-03-27T04:37:18.279Z,3.7074
2023-03-27T04:42:25.171Z,3.78711
2023-03-27T04:47:26.697Z,2.96332
2023-03-27T04:52:28.148Z,2.45045
2023-03-27T04:57:29.598Z,3.5683
2023-03-27T05:02:31.130Z,3.75504
2023-03-27T05:07:32.645Z,3.40697
2023-03-27T05:12:34.078Z,3.0243
2023-03-27T05:17:35.485Z,2.69752
2023-03-27T05:22:36.989Z,2.76738
2023-03-27T05:27:38.433Z,3.15419
2023-03-27T05:32:39.847Z,3.17927
2023-03-27T05:37:41.310Z,2.77786
2023-03-27T05:42:42.736Z,2.60669
2023-03-27T05:47:44.202Z,1.9725
2023-03-27T05:52:45.730Z,2.61717
2023-03-27T05:57:47.172Z,2.10938
2023-03-27T06:02:48.604Z,2.28594
2023-03-27T06:07:50.092Z,1.30942
2023-03-27T06:12:51.564Z,1.9833
2023-03-27T06:17:53.081Z,2.06238
2023-03-27T06:22:54.569Z,2.06333
2023-03-27T06:27:55.998Z,1.6597
2023-03-27T06:32:57.427Z,1.7032
2023-03-27T06:37:58.920Z,1.46376
2023-03-27T06:43:00.325Z,1.13666
2023-03-27T06:48:01.892Z,1.083
2023-03-27T06:53:27.302Z,1.24781
2023-03-27T06:58:29.668Z,1.34118
2023-03-27T07:03:31.093Z,0.98868
2023-03-27T07:08:32.518Z,0.63967
2023-03-27T07:13:33.938Z,0.83974
2023-03-27T07:18:35.502Z,0.07759
2023-03-27T07:23:37.109Z,-0.15773
2023-03-27T07:28:38.578Z,0.59998
2023-03-27T07:33:40.275Z,0.77305
2023-03-27T07:38:41.897Z,0.79052
2023-03-27T07:43:43.329Z,0.88928
2023-03-27T07:48:44.802Z,0.55806
2023-03-27T07:53:46.279Z,0.62411
2023-03-27T07:58:47.734Z,0.3491
2023-03-27T08:03:49.414Z,0.53139
2023-03-27T08:08:50.978Z,0.3129
2023-03-27T08:13:52.491Z,0.17667
2023-03-27T08:18:53.930Z,0.22113
2023-03-27T08:23:56.774Z,-0.57818
2023-03-27T08:28:59.211Z,0.25256
2023-03-27T08:34:00.582Z,0.18461
2023-03-27T08:39:02.212Z,0.34498
2023-03-27T08:44:03.615Z,0.15158
2023-03-27T08:49:05.014Z,0.09537
2023-03-27T08:54:06.629Z,-0.18885
2023-03-27T08:59:08.101Z,-0.84779
2023-03-27T09:04:09.697Z,-0.46481
2023-03-27T09:09:11.121Z,-0.40955
2023-03-27T09:14:12.694Z,-0.88145
2023-03-27T09:19:14.126Z,-0.32699
2023-03-27T09:24:15.884Z,-0.79856
2023-03-27T09:29:20.041Z,-0.4664
2023-03-27T09:34:22.100Z,-0.54674
2023-03-27T09:39:23.658Z,-0.37176
2023-03-27T09:44:25.329Z,-0.47465
2023-03-27T09:49:26.808Z,-0.41781
2023-03-27T09:54:28.417Z,-0.63566
2023-03-27T09:59:29.826Z,-2.12341
2023-03-27T10:04:31.402Z,-1.92176
2023-03-27T10:09:33.033Z,-1.27808
2023-03-27T10:14:34.462Z,-0.90558
2023-03-27T10:19:35.894Z,-0.367
2023-03-27T10:24:44.914Z,-0.44417
2023-03-27T10:29:47.688Z,-0.38605
2023-03-27T10:34:49.144Z,-0.65884
2023-03-27T10:39:50.558Z,-0.13867
2023-03-27T10:44:51.988Z,-0.87287
2023-03-27T10:49:53.448Z,-0.50006
2023-03-27T10:54:54.938Z,-0.52356
2023-03-27T10:59:56.323Z,-0.6147
2023-03-27T11:04:57.714Z,-0.44194
2023-03-27T11:09:59.195Z,-0.44702
2023-03-27T11:15:00.631Z,-0.53054
2023-03-27T11:20:02.133Z,-0.37684
2023-03-27T11:25:03.739Z,-0.0434
2023-03-27T11:30:05.213Z,-0.1717
2023-03-27T11:35:06.677Z,-0.19234
2023-03-27T11:40:08.341Z,-0.75156
2023-03-27T11:45:09.826Z,-1.42542
2023-03-27T11:50:11.268Z,-1.11676
2023-03-27T11:55:12.945Z,-0.65725
2023-03-27T12:00:14.345Z,-0.49879
2023-03-27T12:05:15.747Z,-0.42734
2023-03-27T12:10:17.196Z,-1.2911
2023-03-27T12:15:18.920Z,-1.38986
2023-03-27T12:20:20.348Z,-0.57214
2023-03-27T12:25:21.853Z,-1.246
2023-03-27T12:30:23.577Z,-0.83445
2023-03-27T12:35:25.039Z,-0.51625
2023-03-27T12:40:26.726Z,-0.42225
2023-03-27T12:45:28.155Z,-0.53848
2023-03-27T12:50:29.576Z,-0.38859
2023-03-27T12:55:30.976Z,-0.51625
2023-03-27T13:00:32.583Z,-1.40129
2023-03-27T13:05:33.982Z,-0.9113
2023-03-27T13:10:35.511Z,-0.47529
2023-03-27T13:15:36.957Z,-0.34191
2023-03-27T13:20:38.432Z,-0.17265
2023-03-27T13:25:40.125Z,-0.73378
2023-03-27T13:30:41.582Z,-2.24789
2023-03-27T13:35:43.077Z,-1.57436
2023-03-27T13:40:44.988Z,-1.85857
2023-03-27T13:45:46.476Z,-1.7687
2023-03-27T13:50:47.900Z,-1.59405
2023-03-27T13:55:49.278Z,-0.92908
2023-03-27T14:00:50.849Z,-0.4575
2023-03-27T14:05:52.291Z,-0.32572
2023-03-27T14:10:53.657Z,-0.66043
2023-03-27T14:15:55.126Z,-0.45782
2023-03-27T14:20:56.635Z,-0.49688
2023-03-27T14:25:58.279Z,-0.74236
2023-03-27T14:30:59.807Z,-0.34096
2023-03-27T14:36:01.624Z,-0.3327
2023-03-27T14:41:03.250Z,-0.18726
2023-03-27T14:46:04.713Z,-0.63629
2023-03-27T14:51:06.376Z,-1.21806
2023-03-27T14:56:07.815Z,-0.39304
2023-03-27T15:01:09.265Z,-0.40415
2023-03-27T15:06:10.689Z,0.02646
2023-03-27T15:11:12.123Z,-0.13232
2023-03-27T15:16:13.597Z,-0.06023
2023-03-27T15:21:15.127Z,0.26749
2023-03-27T15:26:16.545Z,0.74384
2023-03-27T15:31:18.054Z,1.93694
2023-03-27T15:36:19.476Z,2.44155
2023-03-27T15:41:20.952Z,3.16498
2023-03-27T15:46:24.136Z,1.92137
2023-03-27T15:51:27.645Z,1.72543
2023-03-27T15:56:29.051Z,2.64353
2023-03-27T16:01:30.733Z,3.22469
2023-03-27T16:06:32.169Z,2.77246
2023-03-27T16:11:33.583Z,2.6918
2023-03-27T16:16:35.050Z,2.60828
2023-03-27T16:21:36.588Z,3.2285
2023-03-27T16:26:38.107Z,3.05225
2023-03-27T16:31:39.585Z,2.69815
2023-03-27T16:36:41.062Z,2.98651
2023-03-27T16:41:42.463Z,3.02779
2023-03-27T16:46:43.885Z,4.22854
2023-03-27T16:51:45.344Z,5.05933
2023-03-27T16:56:46.859Z,4.96723
2023-03-27T17:01:48.578Z,4.46387
2023-03-27T17:06:50.025Z,5.78373
2023-03-27T17:11:51.506Z,5.95904
2023-03-27T17:16:53.001Z,5.70084
2023-03-27T17:21:54.482Z,5.25369
2023-03-27T17:26:55.914Z,6.99278
2023-03-27T17:31:57.612Z,6.55324
2023-03-27T17:36:59.069Z,5.15651
2023-03-27T17:42:00.523Z,5.26258
2023-03-27T17:47:02.101Z,5.67734
2023-03-27T17:52:03.598Z,4.86973
2023-03-27T17:57:05.108Z,5.54904
2023-03-27T18:02:06.584Z,4.71761
2023-03-27T18:07:08.223Z,4.04562
2023-03-27T18:12:09.719Z,4.20536
2023-03-27T18:17:11.154Z,4.33239
2023-03-27T18:22:12.629Z,4.89292
2023-03-27T18:27:14.054Z,5.11332
2023-03-27T18:32:15.519Z,5.29783
2023-03-27T18:37:16.939Z,7.291
2023-03-27T18:42:18.512Z,7.2767
2023-03-27T18:47:19.968Z,7.71752
2023-03-27T18:52:21.393Z,8.96565
2023-03-27T18:57:22.935Z,10.14235
2023-03-27T19:02:24.654Z,9.59322
2023-03-27T19:07:26.142Z,7.82391
2023-03-27T19:12:27.853Z,7.06932
2023-03-27T19:17:29.370Z,6.32458
2023-03-27T19:22:30.787Z,7.16301
2023-03-27T19:27:39.062Z,6.85463
2023-03-27T19:32:41.144Z,6.84542
2023-03-27T19:37:42.626Z,7.25574
2023-03-27T19:42:44.052Z,6.55737
2023-03-27T19:47:45.548Z,6.02827
2023-03-27T19:52:54.383Z,6.49703
2023-03-27T19:58:02.890Z,6.78444
2023-03-27T20:03:04.416Z,6.70854
2023-03-27T20:08:05.899Z,5.58334
2023-03-27T20:13:07.420Z,6.10354
2023-03-27T20:18:09.101Z,6.75523
2023-03-27T20:23:10.599Z,6.72029
2023-03-27T20:28:12.109Z,7.43328
2023-03-27T20:33:13.546Z,7.14427
2023-03-27T20:38:15.251Z,7.3272
2023-03-27T20:43:16.707Z,6.26964
2023-03-27T20:48:18.153Z,6.34935
2023-03-27T20:53:19.592Z,6.52339
2023-03-27T20:58:21.036Z,6.24487
2023-03-27T21:03:22.826Z,6.30711
2023-03-27T21:08:24.458Z,7.27543
2023-03-27T21:13:26.185Z,6.61295
2023-03-27T21:18:27.714Z,6.80731
2023-03-27T21:23:29.151Z,7.04486
2023-03-27T21:28:30.578Z,6.97341
2023-03-27T21:33:32.027Z,7.37706
2023-03-27T21:38:33.475Z,8.26727
2023-03-27T21:43:35.148Z,7.42438
2023-03-27T21:48:36.876Z,8.02272
2023-03-27T21:53:38.287Z,7.37833
2023-03-27T21:58:39.775Z,8.18184
2023-03-27T22:03:41.332Z,9.85683
2023-03-27T22:08:42.849Z,9.36805
2023-03-27T22:13:44.293Z,10.04421
2023-03-27T22:18:45.789Z,9.89367
2023-03-27T22:23:47.209Z,9.95973
2023-03-27T22:28:48.869Z,8.88403
2023-03-27T22:33:50.228Z,10.12679
2023-03-27T22:38:51.621Z,10.04485
2023-03-27T22:43:53.220Z,10.34942
2023-03-27T22:48:54.663Z,9.57671
2023-03-27T22:53:56.346Z,10.25605
2023-03-27T22:58:57.743Z,11.52741
2023-03-27T23:03:59.319Z,10.72324
2023-03-27T23:09:01.174Z,11.39687
2023-03-27T23:14:02.749Z,11.49215
2023-03-27T23:19:04.168Z,11.48739
2023-03-27T23:24:05.755Z,9.89653
2023-03-27T23:29:07.423Z,10.54094
2023-03-27T23:34:08.860Z,11.31334
2023-03-27T23:39:10.317Z,8.777
2023-03-27T23:44:11.753Z,9.54812
2023-03-27T23:49:13.261Z,9.18765
2023-03-27T23:54:14.780Z,9.1235
2023-03-27T23:59:16.196Z,8.7805
